Time;durP1;ratioP1;P1;durP2;ratioP2;P2;SDS_P1;SDS_P2;PMS_P1;PMS_P2;Temp;Humidity;BMP_temperature;BMP_pressure;BME280_temperature;BME280_humidity;BME280_pressure;Samples;Min_cycle;Max_cycle;Signal;HPM_P1;HPM_P2
2023/08/01 00:00:18;;;;;;;1009.63;914.03;;;17.20;99.90;;;;;;4973051;28;20491;-68
2023/08/01 00:02:45;;;;;;;1003.33;907.73;;;17.20;99.90;;;;;;4973249;28;20471;-68
2023/08/01 00:05:13;;;;;;;1003.03;908.37;;;17.20;99.90;;;;;;4973059;28;20539;-69
2023/08/01 00:07:40;;;;;;;992.87;899.07;;;17.20;99.90;;;;;;4973471;28;20451;-68
2023/08/01 00:10:06;;;;;;;982.40;889.87;;;17.20;99.90;;;;;;4973043;28;20455;-68
2023/08/01 00:12:33;;;;;;;982.23;890.07;;;17.20;99.90;;;;;;4973178;28;20494;-68
2023/08/01 00:15:00;;;;;;;974.77;883.13;;;17.20;99.90;;;;;;4973542;28;20451;-69
2023/08/01 00:17:27;;;;;;;983.57;892.60;;;17.20;99.90;;;;;;4976428;28;20461;-68
2023/08/01 00:19:54;;;;;;;986.07;895.43;;;17.20;99.90;;;;;;4976513;28;20479;-68
2023/08/01 00:22:23;;;;;;;1164.97;999.90;;;17.20;99.90;;;;;;4976840;28;20479;-68
2023/08/01 00:24:50;;;;;;;1108.10;999.90;;;17.20;99.90;;;;;;4976627;28;20942;-68
2023/08/01 00:27:16;;;;;;;1085.17;987.27;;;17.20;99.90;;;;;;4976614;28;20461;-68
2023/08/01 00:29:43;;;;;;;1166.57;999.90;;;17.20;99.90;;;;;;4976713;28;20627;-69
2023/08/01 00:32:10;;;;;;;1106.40;999.90;;;17.10;99.90;;;;;;4976257;28;21026;-69
2023/08/01 00:34:37;;;;;;;1098.17;997.53;;;17.10;99.90;;;;;;4976680;28;20459;-69
2023/08/01 00:37:04;;;;;;;1113.73;999.90;;;17.10;99.90;;;;;;4976583;28;20458;-69
2023/08/01 00:39:32;;;;;;;1126.60;999.90;;;17.10;99.90;;;;;;4976425;28;20486;-69
2023/08/01 00:42:00;;;;;;;1108.00;999.90;;;17.10;99.90;;;;;;4976245;28;20538;-69
2023/08/01 00:44:26;;;;;;;1114.77;999.90;;;17.10;99.90;;;;;;4976278;28;20502;-69
2023/08/01 00:46:53;;;;;;;1110.67;999.90;;;17.10;99.90;;;;;;4976155;28;20459;-69
2023/08/01 00:49:21;;;;;;;1126.03;999.90;;;17.10;99.90;;;;;;4976128;28;20455;-69
2023/08/01 00:51:48;;;;;;;1080.50;978.40;;;17.10;99.90;;;;;;4975943;28;21030;-69
2023/08/01 00:54:15;;;;;;;1105.47;999.90;;;17.10;99.90;;;;;;4976117;28;20453;-70
2023/08/01 00:56:44;;;;;;;1185.73;999.90;;;17.20;99.90;;;;;;4976182;28;20482;-69
2023/08/01 00:59:12;;;;;;;1163.17;999.90;;;17.10;99.90;;;;;;4975853;28;20456;-69
2023/08/01 01:01:39;;;;;;;1154.80;999.90;;;17.10;99.90;;;;;;4975905;28;20458;-68
2023/08/01 01:04:05;;;;;;;1122.47;999.90;;;17.10;99.90;;;;;;4976052;28;20842;-68
2023/08/01 01:06:35;;;;;;;1067.33;966.17;;;17.10;99.90;;;;;;4976027;28;20461;-68
2023/08/01 01:09:04;;;;;;;1072.07;971.87;;;17.10;99.90;;;;;;4975841;28;20550;-68
2023/08/01 01:11:31;;;;;;;1098.30;998.00;;;17.10;99.90;;;;;;4975593;28;20455;-68
2023/08/01 01:14:00;;;;;;;1121.80;999.90;;;17.10;99.90;;;;;;4975810;28;20487;-68
2023/08/01 01:16:26;;;;;;;1066.77;969.50;;;17.10;99.90;;;;;;4975938;28;20936;-67
2023/08/01 01:18:53;;;;;;;1091.53;995.53;;;16.90;99.90;;;;;;4975658;28;20459;-67
2023/08/01 01:21:21;;;;;;;1088.90;991.50;;;16.90;99.90;;;;;;4975463;28;20534;-68
2023/08/01 01:23:49;;;;;;;1067.87;971.17;;;16.90;99.90;;;;;;4975527;28;20486;-68
2023/08/01 01:26:20;;;;;;;1042.10;945.47;;;16.80;99.90;;;;;;4975249;28;20494;-68
2023/08/01 01:28:48;;;;;;;1043.70;946.30;;;16.80;99.90;;;;;;4975831;28;20549;-68
2023/08/01 01:31:16;;;;;;;1021.00;924.87;;;16.80;99.90;;;;;;4975473;28;20455;-68
2023/08/01 01:33:43;;;;;;;1029.50;933.17;;;16.80;99.90;;;;;;4975397;28;20447;-68
2023/08/01 01:36:11;;;;;;;1038.87;942.37;;;16.70;99.90;;;;;;4975501;28;20558;-68
2023/08/01 01:38:39;;;;;;;1040.53;944.77;;;16.70;99.90;;;;;;4975367;28;20810;-68
2023/08/01 01:41:06;;;;;;;1043.60;947.80;;;16.70;99.90;;;;;;4975035;28;20494;-67
2023/08/01 01:43:32;;;;;;;1129.07;999.90;;;16.70;99.90;;;;;;4975204;28;20482;-68
2023/08/01 01:45:59;;;;;;;1039.27;943.97;;;16.60;99.90;;;;;;4975359;28;20479;-68
2023/08/01 01:48:26;;;;;;;1017.40;922.93;;;16.70;99.90;;;;;;4975251;28;20506;-68
2023/08/01 01:50:53;;;;;;;1019.30;924.83;;;16.70;99.90;;;;;;4974903;28;20538;-68
2023/08/01 01:53:20;;;;;;;1013.47;919.67;;;16.60;99.90;;;;;;4975051;28;20451;-68
2023/08/01 01:55:48;;;;;;;975.30;887.23;;;16.60;99.90;;;;;;4974982;28;20452;-67
2023/08/01 01:58:15;;;;;;;989.87;901.00;;;16.60;99.90;;;;;;4975103;28;21074;-68
2023/08/01 02:00:41;;;;;;;1033.77;944.13;;;16.60;99.90;;;;;;4974894;28;20539;-68
2023/08/01 02:03:10;;;;;;;1028.40;941.27;;;16.60;99.90;;;;;;4974832;28;20483;-69
2023/08/01 02:05:37;;;;;;;999.47;912.07;;;16.50;99.90;;;;;;4974794;28;21010;-69
2023/08/01 02:08:04;;;;;;;965.70;880.10;;;16.40;99.90;;;;;;4974849;28;20481;-69
2023/08/01 02:10:31;;;;;;;957.90;873.10;;;16.40;99.90;;;;;;4974783;28;20541;-69
2023/08/01 02:12:59;;;;;;;960.07;873.77;;;16.40;99.90;;;;;;4974838;28;20457;-68
2023/08/01 02:15:27;;;;;;;964.90;879.23;;;16.40;99.90;;;;;;4974618;28;20994;-68
2023/08/01 02:17:54;;;;;;;966.73;880.93;;;16.40;99.90;;;;;;4974553;28;20562;-68
2023/08/01 02:20:21;;;;;;;969.90;883.90;;;16.40;99.90;;;;;;4974338;28;20542;-68
2023/08/01 02:22:47;;;;;;;961.00;876.30;;;16.40;99.90;;;;;;4974399;28;20515;-68
2023/08/01 02:25:14;;;;;;;966.00;879.77;;;16.40;99.90;;;;;;4974467;28;20486;-68
2023/08/01 02:27:41;;;;;;;962.63;877.90;;;16.40;99.90;;;;;;4974387;28;20515;-68
2023/08/01 02:30:11;;;;;;;960.93;874.90;;;16.40;99.90;;;;;;4974190;28;20461;-68
2023/08/01 02:32:38;;;;;;;961.97;875.77;;;16.40;99.90;;;;;;4974343;28;20455;-68
2023/08/01 02:35:05;;;;;;;955.90;872.50;;;16.40;99.90;;;;;;4974145;28;20948;-68
2023/08/01 02:37:32;;;;;;;946.10;865.00;;;16.50;99.90;;;;;;4974515;28;20451;-68
2023/08/01 02:39:59;;;;;;;942.47;860.57;;;16.50;99.90;;;;;;4973365;28;20547;-68
2023/08/01 02:42:26;;;;;;;944.27;862.60;;;16.40;99.90;;;;;;4974218;28;20522;-68
2023/08/01 02:44:53;;;;;;;932.67;853.90;;;16.40;99.90;;;;;;4974238;28;20455;-68
2023/08/01 02:47:21;;;;;;;936.07;855.60;;;16.40;99.90;;;;;;4974139;28;20455;-68
2023/08/01 02:49:48;;;;;;;944.37;863.67;;;16.40;99.90;;;;;;4973744;28;20451;-68
2023/08/01 02:52:15;;;;;;;947.30;865.80;;;16.40;99.90;;;;;;4974113;28;20549;-68
2023/08/01 02:54:42;;;;;;;920.37;845.10;;;16.40;99.90;;;;;;4974128;28;20451;-68
2023/08/01 02:57:08;;;;;;;922.43;846.00;;;16.40;99.90;;;;;;4973913;28;20466;-68
2023/08/01 02:59:35;;;;;;;911.27;835.73;;;16.40;99.90;;;;;;4973999;28;20487;-68
2023/08/01 03:02:02;;;;;;;914.60;837.87;;;16.40;99.90;;;;;;4973645;28;20551;-68
2023/08/01 03:04:30;;;;;;;913.17;835.67;;;16.40;99.90;;;;;;4973928;28;20614;-68
2023/08/01 03:06:57;;;;;;;905.30;830.00;;;16.40;99.90;;;;;;4973956;28;20455;-68
2023/08/01 03:09:24;;;;;;;885.63;815.90;;;16.30;99.90;;;;;;4973634;28;20459;-68
2023/08/01 03:11:51;;;;;;;885.47;815.93;;;16.30;99.90;;;;;;4973810;28;20452;-68
2023/08/01 03:14:18;;;;;;;877.03;811.90;;;16.30;99.90;;;;;;4973754;28;20447;-67
2023/08/01 03:16:45;;;;;;;877.80;813.70;;;16.30;99.90;;;;;;4973602;28;20486;-69
2023/08/01 03:19:11;;;;;;;887.27;821.90;;;16.20;99.90;;;;;;4973375;28;20551;-69
2023/08/01 03:21:40;;;;;;;877.80;812.53;;;16.10;99.90;;;;;;4973847;28;20643;-69
2023/08/01 03:24:08;;;;;;;885.03;818.90;;;16.00;99.90;;;;;;4973783;28;20483;-69
2023/08/01 03:26:35;;;;;;;886.00;822.23;;;16.00;99.90;;;;;;4973812;28;20451;-70
2023/08/01 03:29:02;;;;;;;880.83;817.20;;;16.00;99.90;;;;;;4973454;28;20451;-69
2023/08/01 03:31:30;;;;;;;880.37;819.47;;;15.90;99.90;;;;;;4973839;28;20513;-69
2023/08/01 03:33:58;;;;;;;882.17;819.50;;;15.80;99.90;;;;;;4973355;28;20973;-70
2023/08/01 03:36:25;;;;;;;874.20;813.90;;;15.80;99.90;;;;;;4973687;28;20969;-69
2023/08/01 03:38:53;;;;;;;877.60;815.00;;;15.70;99.90;;;;;;4973332;28;20514;-70
2023/08/01 03:41:20;;;;;;;879.83;816.50;;;15.60;99.90;;;;;;4973409;28;20511;-71
2023/08/01 03:43:47;;;;;;;886.97;822.97;;;15.50;99.90;;;;;;4973232;28;20916;-70
2023/08/01 03:46:14;;;;;;;894.50;828.53;;;15.50;99.90;;;;;;4973531;28;20869;-70
2023/08/01 03:48:41;;;;;;;889.50;822.70;;;15.50;99.90;;;;;;4973481;28;20452;-71
2023/08/01 03:51:07;;;;;;;882.07;817.17;;;15.50;99.90;;;;;;4976568;28;20451;-69
2023/08/01 03:53:34;;;;;;;885.53;820.40;;;15.50;99.90;;;;;;4977445;28;20510;-70
2023/08/01 03:56:03;;;;;;;877.53;814.03;;;15.40;99.90;;;;;;4977296;28;20477;-70
2023/08/01 03:58:30;;;;;;;880.17;815.13;;;15.40;99.90;;;;;;4977497;28;20453;-69
2023/08/01 04:00:56;;;;;;;901.30;834.73;;;15.30;99.90;;;;;;4976926;28;21003;-69
2023/08/01 04:03:23;;;;;;;890.40;823.13;;;15.20;99.90;;;;;;4976890;28;20561;-70
2023/08/01 04:05:50;;;;;;;896.03;828.30;;;15.20;99.90;;;;;;4977160;28;20490;-70
2023/08/01 04:08:17;;;;;;;891.50;825.40;;;15.30;99.90;;;;;;4977025;28;20457;-71
2023/08/01 04:10:44;;;;;;;898.37;830.80;;;15.20;99.90;;;;;;4976766;28;20928;-70
2023/08/01 04:13:12;;;;;;;892.03;824.03;;;15.20;99.90;;;;;;4977019;28;20455;-70
2023/08/01 04:15:39;;;;;;;902.07;832.60;;;15.20;99.90;;;;;;4977148;28;20537;-70
2023/08/01 04:18:06;;;;;;;894.43;825.90;;;15.20;99.90;;;;;;4976770;28;20467;-70
2023/08/01 04:20:33;;;;;;;891.50;823.70;;;15.30;99.90;;;;;;4976863;28;20936;-70
2023/08/01 04:22:59;;;;;;;896.07;826.60;;;15.30;99.90;;;;;;4976837;28;20546;-70
2023/08/01 04:25:28;;;;;;;895.43;825.87;;;15.30;99.90;;;;;;4976654;28;20455;-70
2023/08/01 04:27:54;;;;;;;911.73;840.13;;;15.30;99.90;;;;;;4976877;28;20455;-70
2023/08/01 04:30:23;;;;;;;902.10;831.50;;;15.30;99.90;;;;;;4976571;28;20459;-69
2023/08/01 04:32:50;;;;;;;898.27;828.67;;;15.30;99.90;;;;;;4976677;28;20477;-70
2023/08/01 04:35:17;;;;;;;899.93;830.67;;;15.30;99.90;;;;;;4976483;28;20459;-70
2023/08/01 04:37:44;;;;;;;897.57;828.60;;;15.30;99.90;;;;;;4976444;28;20546;-70
2023/08/01 04:40:11;;;;;;;899.37;830.67;;;15.40;99.90;;;;;;4976024;28;20455;-69
2023/08/01 04:42:38;;;;;;;896.03;829.07;;;15.40;99.90;;;;;;4976665;28;20451;-70
2023/08/01 04:45:07;;;;;;;889.37;825.50;;;15.40;99.90;;;;;;4976382;28;20483;-70
2023/08/01 04:47:36;;;;;;;878.67;817.27;;;15.40;99.90;;;;;;4976393;28;20455;-70
2023/08/01 04:50:03;;;;;;;854.33;797.17;;;15.50;99.90;;;;;;4976301;28;20451;-70
2023/08/01 04:52:30;;;;;;;873.83;815.83;;;15.50;99.90;;;;;;4976184;28;20462;-70
2023/08/01 04:54:56;;;;;;;860.77;803.93;;;15.50;99.90;;;;;;4976155;28;20451;-70
2023/08/01 04:57:23;;;;;;;841.97;788.07;;;15.50;99.90;;;;;;4976092;28;20459;-70
2023/08/01 04:59:50;;;;;;;837.57;784.87;;;15.50;99.90;;;;;;4976217;28;20679;-69
2023/08/01 05:02:17;;;;;;;854.37;799.13;;;15.50;99.90;;;;;;4974766;28;20455;-70
2023/08/01 05:04:45;;;;;;;860.00;804.77;;;15.40;99.90;;;;;;4975974;28;20505;-70
2023/08/01 05:07:12;;;;;;;858.77;803.53;;;15.40;99.90;;;;;;4975520;28;20455;-70
2023/08/01 05:09:39;;;;;;;864.83;808.77;;;15.40;99.90;;;;;;4975879;28;20455;-69
2023/08/01 05:12:07;;;;;;;879.67;822.10;;;15.30;99.90;;;;;;4975630;28;20452;-69
2023/08/01 05:14:33;;;;;;;857.80;802.17;;;15.30;99.90;;;;;;4975888;28;20479;-70
2023/08/01 05:17:00;;;;;;;853.63;799.93;;;15.30;99.90;;;;;;4975825;28;20451;-70
2023/08/01 05:19:27;;;;;;;837.57;784.93;;;15.30;99.90;;;;;;4975611;28;20467;-69
2023/08/01 05:21:56;;;;;;;828.20;776.97;;;15.40;99.90;;;;;;4975429;28;20459;-69
2023/08/01 05:24:22;;;;;;;819.33;769.67;;;15.50;99.90;;;;;;4975745;28;20483;-70
2023/08/01 05:26:49;;;;;;;784.13;737.43;;;15.60;99.90;;;;;;4975765;28;20522;-70
2023/08/01 05:29:16;;;;;;;756.57;713.10;;;15.70;99.90;;;;;;4975407;28;20461;-70
2023/08/01 05:31:43;;;;;;;731.20;691.10;;;15.80;99.90;;;;;;4975407;28;20451;-70
2023/08/01 05:34:10;;;;;;;724.63;685.53;;;15.80;99.90;;;;;;4975390;28;20447;-70
2023/08/01 05:36:37;;;;;;;655.87;622.57;;;15.90;99.90;;;;;;4975571;28;20459;-70
2023/08/01 05:39:06;;;;;;;557.60;531.20;;;15.90;99.90;;;;;;4975486;28;20459;-70
2023/08/01 05:41:33;;;;;;;660.17;627.80;;;16.00;99.90;;;;;;4975363;28;20498;-69
2023/08/01 05:44:00;;;;;;;671.33;638.33;;;16.10;99.90;;;;;;4975323;28;20490;-70
2023/08/01 05:46:27;;;;;;;670.87;637.97;;;16.10;99.90;;;;;;4975379;28;20459;-70
2023/08/01 05:48:54;;;;;;;593.00;565.00;;;16.10;99.90;;;;;;4975022;28;20518;-70
2023/08/01 05:51:21;;;;;;;604.13;575.57;;;16.20;99.90;;;;;;4975053;28;20455;-70
2023/08/01 05:53:47;;;;;;;621.30;591.57;;;16.20;99.90;;;;;;4975023;28;20458;-69
2023/08/01 05:56:16;;;;;;;612.23;582.93;;;16.30;99.90;;;;;;4975011;28;20451;-69
2023/08/01 05:58:43;;;;;;;565.50;539.20;;;16.40;99.90;;;;;;4974891;28;20542;-70
2023/08/01 06:01:11;;;;;;;482.87;461.90;;;16.50;99.90;;;;;;4974719;28;20827;-69
2023/08/01 06:03:38;;;;;;;384.07;368.47;;;16.50;99.90;;;;;;4974856;28;20451;-69
2023/08/01 06:06:05;;;;;;;414.53;397.60;;;16.50;99.90;;;;;;4975074;28;20458;-70
2023/08/01 06:08:32;;;;;;;384.87;368.30;;;16.40;99.90;;;;;;4974927;28;20538;-70
2023/08/01 06:10:59;;;;;;;458.37;439.23;;;16.40;99.90;;;;;;4975020;28;20998;-70
2023/08/01 06:13:27;;;;;;;485.10;464.23;;;16.40;99.90;;;;;;4973852;28;20457;-70
2023/08/01 06:15:54;;;;;;;506.77;484.67;;;16.50;99.90;;;;;;4973907;28;20944;-70
2023/08/01 06:18:21;;;;;;;419.83;402.43;;;16.70;99.90;;;;;;4973794;28;20468;-70
2023/08/01 06:20:49;;;;;;;386.40;370.13;;;16.80;99.90;;;;;;4974077;28;20542;-70
2023/08/01 06:23:16;;;;;;;372.30;357.53;;;16.90;99.90;;;;;;4973633;28;20455;-71
2023/08/01 06:25:42;;;;;;;335.90;323.00;;;17.10;99.90;;;;;;4974472;28;20522;-71
2023/08/01 06:28:09;;;;;;;192.97;185.80;;;17.20;99.90;;;;;;4974283;28;20455;-71
2023/08/01 06:30:38;;;;;;;60.00;56.13;;;17.40;99.90;;;;;;4974266;28;20551;-70
2023/08/01 06:33:05;;;;;;;101.37;96.93;;;17.30;99.90;;;;;;4974571;28;20490;-71
2023/08/01 06:35:31;;;;;;;50.40;47.87;;;17.60;99.90;;;;;;4973141;28;20530;-70
2023/08/01 06:37:58;;;;;;;31.77;29.77;;;17.50;99.90;;;;;;4973533;28;20466;-71
2023/08/01 06:40:25;;;;;;;23.53;21.83;;;17.50;99.90;;;;;;4973541;28;20535;-71
2023/08/01 06:42:52;;;;;;;21.23;19.67;;;17.70;99.90;;;;;;4973517;28;20451;-71
2023/08/01 06:45:19;;;;;;;19.47;17.97;;;17.70;99.90;;;;;;4973462;28;20471;-71
2023/08/01 06:47:47;;;;;;;22.10;20.40;;;17.60;99.90;;;;;;4973622;28;20477;-71
2023/08/01 06:50:14;;;;;;;29.23;27.33;;;17.60;99.90;;;;;;4973481;28;20455;-71
2023/08/01 06:52:41;;;;;;;16.73;14.40;;;17.80;99.90;;;;;;4973135;28;20459;-71
2023/08/01 06:55:08;;;;;;;17.67;11.93;;;18.00;99.90;;;;;;4973487;28;20549;-70
2023/08/01 06:57:35;;;;;;;14.70;10.27;;;18.20;99.90;;;;;;4973266;28;20455;-70
2023/08/01 07:00:02;;;;;;;14.70;10.43;;;18.40;99.90;;;;;;4972823;28;20451;-70
2023/08/01 07:02:29;;;;;;;13.40;7.93;;;18.50;99.90;;;;;;4973087;28;20994;-71
2023/08/01 07:04:57;;;;;;;11.10;6.47;;;18.90;99.90;;;;;;4972582;28;20484;-70
2023/08/01 07:07:24;;;;;;;13.70;7.93;;;19.00;99.90;;;;;;4992404;28;20455;-71
2023/08/01 07:09:51;;;;;;;9.60;5.77;;;18.90;99.90;;;;;;4992109;28;20533;-71
2023/08/01 07:12:18;;;;;;;11.67;6.53;;;19.00;99.90;;;;;;4991350;28;20958;-70
2023/08/01 07:14:45;;;;;;;11.83;6.60;;;19.20;99.90;;;;;;4992292;28;20446;-70
2023/08/01 07:17:11;;;;;;;15.23;6.80;;;19.50;99.90;;;;;;4992693;28;20461;-71
2023/08/01 07:19:38;;;;;;;15.63;6.20;;;19.50;99.90;;;;;;4992434;28;20493;-70
2023/08/01 07:22:07;;;;;;;11.07;6.17;;;19.20;99.90;;;;;;4992238;28;20454;-70
2023/08/01 07:24:33;;;;;;;15.03;6.60;;;18.90;99.90;;;;;;4991736;28;20516;-70
2023/08/01 07:27:00;;;;;;;12.80;6.57;;;18.90;99.90;;;;;;4992381;28;20458;-70
2023/08/01 07:29:27;;;;;;;12.53;6.10;;;18.90;99.90;;;;;;4992077;28;20490;-70
2023/08/01 07:31:54;;;;;;;13.30;6.60;;;19.10;99.90;;;;;;4992493;28;20492;-70
2023/08/01 07:34:21;;;;;;;12.57;7.40;;;19.00;99.90;;;;;;4992177;28;20447;-70
2023/08/01 07:36:49;;;;;;;12.37;5.63;;;19.00;99.90;;;;;;4992491;28;20553;-70
2023/08/01 07:39:17;;;;;;;9.97;6.13;;;19.10;99.90;;;;;;4992145;28;20968;-70
2023/08/01 07:41:44;;;;;;;9.87;5.73;;;19.20;99.90;;;;;;4992142;28;20508;-71
2023/08/01 07:44:11;;;;;;;11.10;6.20;;;18.80;99.90;;;;;;4991856;28;20546;-70
2023/08/01 07:46:38;;;;;;;15.17;6.20;;;19.40;99.90;;;;;;4992143;28;20451;-70
2023/08/01 07:49:05;;;;;;;11.23;5.50;;;19.80;99.90;;;;;;4992244;28;20446;-70
2023/08/01 07:51:33;;;;;;;13.37;5.20;;;19.40;99.90;;;;;;4992590;28;20485;-70
2023/08/01 07:54:01;;;;;;;10.00;5.60;;;19.40;99.50;;;;;;4992548;28;20466;-70
2023/08/01 07:56:29;;;;;;;9.70;5.37;;;19.40;99.20;;;;;;4992924;28;20451;-70
2023/08/01 07:58:56;;;;;;;13.33;5.80;;;19.20;99.50;;;;;;4992949;28;20449;-69
2023/08/01 08:01:23;;;;;;;8.43;4.53;;;19.00;99.90;;;;;;4992704;28;21028;-70
2023/08/01 08:03:50;;;;;;;8.57;5.13;;;18.90;99.80;;;;;;4992555;28;20493;-71
2023/08/01 08:06:17;;;;;;;11.50;6.13;;;18.80;99.90;;;;;;4992721;28;20497;-70
2023/08/01 08:08:43;;;;;;;13.87;6.17;;;18.70;99.90;;;;;;4993154;28;20463;-70
2023/08/01 08:11:10;;;;;;;9.37;5.07;;;18.80;99.90;;;;;;4992410;28;20454;-71
2023/08/01 08:13:39;;;;;;;11.77;5.97;;;19.00;99.90;;;;;;4992607;28;20460;-70
2023/08/01 08:16:06;;;;;;;14.30;5.67;;;19.00;99.90;;;;;;4990859;28;20537;-70
2023/08/01 08:18:33;;;;;;;13.20;5.30;;;18.60;99.90;;;;;;4991375;28;20472;-70
2023/08/01 08:21:00;;;;;;;11.60;5.43;;;18.50;99.90;;;;;;4992123;28;20450;-69
2023/08/01 08:23:27;;;;;;;11.80;6.20;;;18.60;99.90;;;;;;4992560;28;20458;-70
2023/08/01 08:25:54;;;;;;;14.10;5.50;;;18.80;99.90;;;;;;4992091;28;20571;-70
2023/08/01 08:28:30;;;;;;;11.60;5.57;;;19.10;99.90;;;;;;4990886;28;20533;-70
2023/08/01 08:30:58;;;;;;;9.33;5.10;;;19.40;98.20;;;;;;4991615;28;20457;-70
2023/08/01 08:33:25;;;;;;;12.80;5.70;;;19.40;96.90;;;;;;4991907;28;20458;-69
2023/08/01 08:35:55;;;;;;;11.50;4.80;;;20.10;96.80;;;;;;4992112;28;20461;-70
2023/08/01 08:38:24;;;;;;;9.20;4.40;;;20.50;95.30;;;;;;4995288;28;20450;-70
2023/08/01 08:41:09;;;;;;;12.60;5.20;;;20.50;95.30;;;;;;4995143;28;20461;-69
2023/08/01 08:43:36;;;;;;;11.03;4.03;;;20.60;95.10;;;;;;4995787;28;20933;-70
2023/08/01 08:46:05;;;;;;;12.73;4.03;;;20.30;94.10;;;;;;4995306;28;20478;-70
2023/08/01 08:48:33;;;;;;;6.53;3.87;;;19.90;95.10;;;;;;4995232;28;20464;-70
2023/08/01 08:51:01;;;;;;;14.80;4.60;;;20.80;95.40;;;;;;4995114;28;20456;-70
2023/08/01 08:53:28;;;;;;;11.63;5.00;;;20.80;92.00;;;;;;4995389;28;20549;-69
2023/08/01 08:55:56;;;;;;;11.63;4.43;;;20.90;92.00;;;;;;4995805;28;20817;-70
2023/08/01 08:58:24;;;;;;;7.40;3.70;;;21.00;88.00;;;;;;4995527;28;20452;-70
2023/08/01 09:00:51;;;;;;;7.83;4.17;;;21.10;87.10;;;;;;4994758;28;20455;-69
2023/08/01 09:03:19;;;;;;;9.53;4.80;;;21.10;87.10;;;;;;4994148;28;20501;-69
2023/08/01 09:05:50;;;;;;;10.57;5.00;;;21.50;90.60;;;;;;4993813;28;20482;-70
2023/08/01 09:08:20;;;;;;;7.70;3.60;;;21.30;87.30;;;;;;4994195;28;21061;-69
2023/08/01 09:10:47;;;;;;;12.60;4.63;;;20.80;92.00;;;;;;4994623;28;20458;-70
2023/08/01 09:13:15;;;;;;;10.43;5.27;;;20.40;91.80;;;;;;4994738;28;20454;-70
2023/08/01 09:15:43;;;;;;;13.03;5.20;;;20.60;90.60;;;;;;4994796;28;20452;-69
2023/08/01 09:18:09;;;;;;;10.20;4.47;;;20.50;91.90;;;;;;4995087;28;20538;-69
2023/08/01 09:20:48;;;;;;;9.30;3.53;;;21.20;92.20;;;;;;4995051;28;20532;-70
2023/08/01 09:23:15;;;;;;;9.80;4.00;;;21.60;87.50;;;;;;4995297;28;20565;-69
2023/08/01 09:25:43;;;;;;;10.73;4.37;;;21.80;83.30;;;;;;4995190;28;20843;-69
2023/08/01 09:28:20;;;;;;;12.83;5.20;;;22.00;87.90;;;;;;4995095;28;20456;-69
2023/08/01 09:30:48;;;;;;;15.20;4.03;;;22.40;85.20;;;;;;4994742;28;20450;-69
2023/08/01 09:33:15;;;;;;;10.43;4.20;;;22.10;80.10;;;;;;4995304;28;20450;-69
2023/08/01 09:35:44;;;;;;;8.50;4.57;;;22.00;70.10;;;;;;4995377;28;20450;-69
2023/08/01 09:38:13;;;;;;;8.63;3.80;;;21.70;71.60;;;;;;4994373;28;20771;-70
2023/08/01 09:40:41;;;;;;;9.20;3.40;;;21.60;71.60;;;;;;4994583;28;20809;-70
2023/08/01 09:43:08;;;;;;;9.03;3.67;;;21.70;71.60;;;;;;4994724;28;20457;-70
2023/08/01 09:45:35;;;;;;;7.57;4.37;;;21.80;71.70;;;;;;4994499;28;20573;-70
2023/08/01 09:48:02;;;;;;;8.30;4.13;;;22.30;72.20;;;;;;4994258;28;20493;-70
2023/08/01 09:50:30;;;;;;;7.33;3.43;;;22.90;72.70;;;;;;4994469;28;20463;-69
2023/08/01 09:52:56;;;;;;;8.73;3.80;;;23.20;60.40;;;;;;4994702;28;20885;-70
2023/08/01 09:55:31;;;;;;;7.63;3.50;;;23.60;56.60;;;;;;4995748;28;20461;-70
2023/08/01 09:58:00;;;;;;;9.47;3.20;;;23.90;56.90;;;;;;4995424;28;20525;-71
2023/08/01 10:00:27;;;;;;;8.17;4.20;;;24.20;54.60;;;;;;4995907;28;20541;-70
2023/08/01 10:02:55;;;;;;;8.53;3.37;;;24.30;53.40;;;;;;4995621;28;20450;-72
2023/08/01 10:05:23;;;;;;;7.40;3.40;;;24.40;48.50;;;;;;4995758;28;20589;-70
2023/08/01 10:07:53;;;;;;;12.50;4.00;;;24.20;48.30;;;;;;4995065;28;20545;-70
2023/08/01 10:10:21;;;;;;;7.70;3.80;;;23.70;47.80;;;;;;4996718;28;20534;-70
2023/08/01 10:12:51;;;;;;;7.57;3.43;;;23.00;56.00;;;;;;4995728;28;20504;-72
2023/08/01 10:15:18;;;;;;;10.33;4.20;;;21.90;63.60;;;;;;4995414;28;20938;-71
2023/08/01 10:17:45;;;;;;;11.57;4.13;;;21.10;71.10;;;;;;4994812;28;20489;-71
2023/08/01 10:20:15;;;;;;;12.90;4.10;;;20.90;75.60;;;;;;4995732;28;20445;-72
2023/08/01 10:22:42;;;;;;;9.83;3.73;;;20.90;79.00;;;;;;4995205;28;20947;-71
2023/08/01 10:25:10;;;;;;;9.83;4.67;;;21.20;79.30;;;;;;4995447;28;20957;-70
2023/08/01 10:27:37;;;;;;;10.40;4.07;;;21.60;73.60;;;;;;4994871;28;20457;-70
2023/08/01 10:30:07;;;;;;;14.63;4.57;;;22.10;80.10;;;;;;4995305;28;20474;-70
2023/08/01 10:32:35;;;;;;;9.10;4.60;;;22.60;72.50;;;;;;4995344;28;20450;-71
2023/08/01 10:35:02;;;;;;;10.00;3.80;;;22.80;67.80;;;;;;4994988;28;20549;-71
2023/08/01 10:37:41;;;;;;;7.80;3.50;;;22.70;64.30;;;;;;4994839;28;20451;-71
2023/08/01 10:40:09;;;;;;;8.93;4.30;;;23.00;64.50;;;;;;4994694;28;20462;-70
2023/08/01 10:42:40;;;;;;;12.70;4.40;;;23.10;60.70;;;;;;4994841;28;20505;-71
2023/08/01 10:45:20;;;;;;;9.20;3.73;;;23.40;58.50;;;;;;4994727;28;20456;-71
2023/08/01 10:47:47;;;;;;;8.07;3.50;;;22.90;56.00;;;;;;4994685;28;20840;-70
2023/08/01 10:50:15;;;;;;;9.30;3.80;;;22.40;55.50;;;;;;4994675;28;20456;-70
2023/08/01 10:52:43;;;;;;;8.90;4.37;;;21.90;55.80;;;;;;4995149;28;20461;-70
2023/08/01 10:55:11;;;;;;;11.07;3.90;;;21.50;58.20;;;;;;4994955;28;20454;-71
2023/08/01 10:57:39;;;;;;;8.80;3.77;;;21.40;54.50;;;;;;4994347;28;20448;-70
2023/08/01 11:00:10;;;;;;;7.97;2.50;;;22.20;55.30;;;;;;4994280;28;20458;-71
2023/08/01 11:02:38;;;;;;;8.10;2.87;;;23.00;47.20;;;;;;4994537;28;20445;-72
2023/08/01 11:05:06;;;;;;;7.90;3.00;;;23.80;47.60;;;;;;4994716;28;20454;-71
2023/08/01 11:07:33;;;;;;;7.43;3.20;;;24.30;41.00;;;;;;4993932;28;20458;-71
2023/08/01 11:10:08;;;;;;;12.60;3.47;;;24.00;39.10;;;;;;4994214;28;20450;-72
2023/08/01 11:12:37;;;;;;;7.30;2.90;;;24.30;39.00;;;;;;4994723;28;20871;-71
2023/08/01 11:15:05;;;;;;;8.30;2.90;;;24.90;36.00;;;;;;4994615;28;20461;-72
2023/08/01 11:17:34;;;;;;;7.63;2.27;;;25.40;30.90;;;;;;4994100;28;20558;-70
2023/08/01 11:20:05;;;;;;;7.40;3.10;;;25.20;23.50;;;;;;4995009;28;20829;-71
2023/08/01 11:22:32;;;;;;;8.80;2.43;;;25.90;23.80;;;;;;4994231;28;20455;-71
2023/08/01 11:24:59;;;;;;;7.83;3.03;;;26.40;16.50;;;;;;4994549;28;20458;-71
2023/08/01 11:27:26;;;;;;;10.03;3.03;;;26.20;16.50;;;;;;4993667;28;20485;-71
2023/08/01 11:29:53;;;;;;;10.70;2.43;;;25.50;23.50;;;;;;4994079;28;20943;-70
2023/08/01 11:32:21;;;;;;;8.80;2.80;;;25.30;24.10;;;;;;4994589;28;20458;-71
2023/08/01 11:34:50;;;;;;;9.67;2.80;;;26.00;20.10;;;;;;4994422;28;20815;-70
2023/08/01 11:37:21;;;;;;;10.07;2.70;;;26.60;16.70;;;;;;4993736;28;20482;-71
2023/08/01 11:39:49;;;;;;;10.00;3.37;;;27.00;16.90;;;;;;4994241;28;20448;-69
2023/08/01 11:42:17;;;;;;;7.03;2.20;;;26.00;16.30;;;;;;4994181;28;20454;-69
2023/08/01 11:44:44;;;;;;;10.10;4.73;;;24.90;23.30;;;;;;4994053;28;20515;-68
2023/08/01 11:47:13;;;;;;;6.17;2.00;;;24.20;24.00;;;;;;4993431;28;20485;-70
2023/08/01 11:49:40;;;;;;;5.73;1.80;;;24.30;30.10;;;;;;4991953;28;20450;-69
2023/08/01 11:52:09;;;;;;;5.83;2.33;;;23.50;29.50;;;;;;4992468;28;20548;-69
2023/08/01 11:54:45;;;;;;;10.83;3.13;;;22.40;37.50;;;;;;4992151;28;20461;-69
2023/08/01 11:57:12;;;;;;;7.63;2.63;;;22.00;41.80;;;;;;4992066;28;20465;-70
2023/08/01 11:59:47;;;;;;;6.73;2.47;;;22.30;43.30;;;;;;4992031;28;20827;-71
2023/08/01 12:02:22;;;;;;;7.63;2.60;;;21.60;45.60;;;;;;4992381;28;20456;-70
2023/08/01 12:04:49;;;;;;;8.60;2.93;;;20.80;48.10;;;;;;4991644;28;20461;-70
2023/08/01 12:07:17;;;;;;;11.23;2.57;;;20.40;53.90;;;;;;4991670;28;20478;-69
2023/08/01 12:09:44;;;;;;;10.80;3.13;;;20.70;53.90;;;;;;4991827;28;20888;-70
2023/08/01 12:12:11;;;;;;;7.43;2.90;;;21.90;55.00;;;;;;4993733;28;20453;-70
2023/08/01 12:14:42;;;;;;;8.23;3.40;;;22.30;46.50;;;;;;4995164;28;20459;-69
2023/08/01 12:17:08;;;;;;;9.87;3.30;;;21.20;45.50;;;;;;4995485;28;20460;-69
2023/08/01 12:19:35;;;;;;;6.97;2.90;;;20.40;58.90;;;;;;4995311;28;20835;-69
2023/08/01 12:22:02;;;;;;;8.57;3.60;;;19.70;61.60;;;;;;4995559;28;20455;-69